createdAt,value
2022-10-11T00:00:16.795Z,1.47
2022-10-11T00:02:43.592Z,2.13
2022-10-11T00:05:10.476Z,1.47
2022-10-11T00:07:38.228Z,1.87
2022-10-11T00:10:07.875Z,1.10
2022-10-11T00:12:35.504Z,1.73
2022-10-11T00:15:03.063Z,1.17
2022-10-11T00:17:29.915Z,1.57
2022-10-11T00:19:56.863Z,1.23
2022-10-11T00:22:24.600Z,2.70
2022-10-11T00:24:55.097Z,2.60
2022-10-11T00:27:21.809Z,2.53
2022-10-11T00:29:49.899Z,3.73
2022-10-11T00:32:17.083Z,1.63
2022-10-11T00:34:43.853Z,2.17
2022-10-11T00:37:10.751Z,2.07
2022-10-11T00:39:37.474Z,2.87
2022-10-11T00:42:05.061Z,4.47
2022-10-11T00:44:33.060Z,6.90
2022-10-11T00:47:05.277Z,2.63
2022-10-11T00:49:45.336Z,4.63
2022-10-11T00:52:31.763Z,4.93
2022-10-11T00:55:08.586Z,5.13
2022-10-11T00:57:39.877Z,4.93
2022-10-11T01:00:09.247Z,3.40
2022-10-11T01:02:37.687Z,2.57
2022-10-11T01:05:28.006Z,2.97
2022-10-11T01:07:53.806Z,4.97
2022-10-11T01:10:20.563Z,5.20
2022-10-11T01:13:08.726Z,5.43
2022-10-11T01:15:46.762Z,6.67
2022-10-11T01:18:28.791Z,3.93
2022-10-11T01:21:25.946Z,5.40
2022-10-11T01:24:08.588Z,8.03
2022-10-11T01:26:57.537Z,5.07
2022-10-11T01:29:50.458Z,4.30
2022-10-11T01:32:31.904Z,5.13
2022-10-11T01:39:21.235Z,2.73
2022-10-11T01:41:52.197Z,5.43
2022-10-11T01:44:20.079Z,7.07
2022-10-11T01:46:46.798Z,2.60
2022-10-11T01:49:13.479Z,3.90
2022-10-11T01:51:47.333Z,4.63
2022-10-11T01:55:08.189Z,4.20
2022-10-11T01:57:58.576Z,6.50
2022-10-11T02:00:42.361Z,4.23
2022-10-11T02:03:24.279Z,4.67
2022-10-11T02:06:01.196Z,8.50
2022-10-11T02:08:37.053Z,4.70
2022-10-11T02:11:34.897Z,5.40
2022-10-11T02:14:22.712Z,6.37
2022-10-11T02:16:56.398Z,7.10
2022-10-11T02:19:29.073Z,8.07
2022-10-11T02:22:01.444Z,11.43
2022-10-11T02:24:32.276Z,14.10
2022-10-11T02:27:01.812Z,17.90
2022-10-11T02:29:32.800Z,19.10
2022-10-11T02:32:01.995Z,20.83
2022-10-11T02:34:55.887Z,14.60
2022-10-11T02:37:41.509Z,17.77
2022-10-11T02:40:33.250Z,13.00
2022-10-11T02:43:12.279Z,17.73
2022-10-11T02:45:46.532Z,12.43
2022-10-11T02:48:14.093Z,11.63
2022-10-11T02:50:42.234Z,12.87
2022-10-11T02:53:09.437Z,18.03
2022-10-11T02:55:36.424Z,11.77
2022-10-11T02:58:03.849Z,11.93
2022-10-11T03:00:30.919Z,11.20
2022-10-11T03:02:57.616Z,9.87
2022-10-11T03:05:37.130Z,13.10
2022-10-11T03:08:03.820Z,8.23
2022-10-11T03:10:30.555Z,11.87
2022-10-11T03:13:03.676Z,7.83
2022-10-11T03:15:30.409Z,12.80
2022-10-11T03:17:57.283Z,9.57
2022-10-11T03:20:25.209Z,10.20
2022-10-11T03:22:51.923Z,12.90
2022-10-11T03:25:18.705Z,12.30
2022-10-11T03:27:45.535Z,11.93
2022-10-11T03:30:17.317Z,16.60
2022-10-11T03:32:44.834Z,12.17
2022-10-11T03:35:11.770Z,12.77
2022-10-11T03:37:38.543Z,14.63
2022-10-11T03:40:07.063Z,12.33
2022-10-11T03:42:33.827Z,9.63
2022-10-11T03:45:04.732Z,9.90
2022-10-11T03:47:31.977Z,11.00
2022-10-11T03:49:58.702Z,7.97
2022-10-11T03:52:25.676Z,8.03
2022-10-11T03:54:52.609Z,7.97
2022-10-11T03:57:19.542Z,7.60
2022-10-11T03:59:46.517Z,11.83
2022-10-11T04:02:13.242Z,20.33
2022-10-11T04:04:40.059Z,11.33
2022-10-11T04:07:06.778Z,10.90
2022-10-11T04:09:33.724Z,20.87
2022-10-11T04:12:00.784Z,10.53
2022-10-11T04:14:27.631Z,14.17
2022-10-11T04:16:56.418Z,10.07
2022-10-11T04:19:26.618Z,9.63
2022-10-11T04:21:53.420Z,9.63
2022-10-11T04:24:20.249Z,10.53
2022-10-11T04:26:47.012Z,7.73
2022-10-11T04:29:14.898Z,8.83
2022-10-11T04:31:41.583Z,21.10
2022-10-11T04:34:08.309Z,10.13
2022-10-11T04:36:35.482Z,11.13
2022-10-11T04:39:02.359Z,9.60
2022-10-11T04:41:29.495Z,11.53
2022-10-11T04:43:56.453Z,8.57
2022-10-11T04:46:24.141Z,9.70
2022-10-11T04:48:51.624Z,8.03
2022-10-11T04:51:18.823Z,9.07
2022-10-11T04:53:46.180Z,7.20
2022-10-11T04:56:14.922Z,7.93
2022-10-11T04:58:41.849Z,6.87
2022-10-11T05:01:09.805Z,7.33
2022-10-11T05:03:37.295Z,8.00
2022-10-11T05:06:06.105Z,6.00
2022-10-11T05:08:33.729Z,7.93
2022-10-11T05:11:01.934Z,8.47
2022-10-11T05:13:31.712Z,8.73
2022-10-11T05:15:58.598Z,6.60
2022-10-11T05:18:25.486Z,7.50
2022-10-11T05:21:09.062Z,6.13
2022-10-11T05:23:37.110Z,6.50
2022-10-11T05:26:04.703Z,7.10
2022-10-11T05:28:31.926Z,7.70
2022-10-11T05:30:59.851Z,8.73
2022-10-11T05:33:26.906Z,9.30
2022-10-11T05:35:54.697Z,12.67
2022-10-11T05:38:21.597Z,8.97
2022-10-11T05:40:48.840Z,8.90
2022-10-11T05:43:15.706Z,9.37
2022-10-11T05:45:44.480Z,8.83
2022-10-11T05:48:13.296Z,13.50
2022-10-11T05:50:40.040Z,12.07
2022-10-11T05:53:06.895Z,11.57
2022-10-11T05:55:43.888Z,11.43
2022-10-11T05:58:13.621Z,12.57
2022-10-11T06:00:41.594Z,12.60
2022-10-11T06:03:10.893Z,13.57
2022-10-11T06:05:37.603Z,12.67
2022-10-11T06:08:09.810Z,16.43
2022-10-11T06:10:38.038Z,11.13
2022-10-11T06:13:05.591Z,14.43
2022-10-11T06:15:32.748Z,14.50
2022-10-11T06:17:59.680Z,19.43
2022-10-11T06:20:27.890Z,16.80
2022-10-11T06:22:58.777Z,14.47
2022-10-11T06:25:25.556Z,18.43
2022-10-11T06:27:54.388Z,22.13
2022-10-11T06:30:24.808Z,23.00
2022-10-11T06:32:54.440Z,21.23
2022-10-11T06:35:24.767Z,20.17
2022-10-11T06:37:51.533Z,18.03
2022-10-11T06:40:18.325Z,23.53
2022-10-11T06:42:49.647Z,23.33
2022-10-11T06:45:16.386Z,19.70
2022-10-11T06:47:43.278Z,21.47
2022-10-11T06:50:10.050Z,27.60
2022-10-11T06:52:36.808Z,24.77
2022-10-11T06:55:03.867Z,21.37
2022-10-11T06:57:33.400Z,20.27
2022-10-11T07:00:01.094Z,22.87
2022-10-11T07:02:27.773Z,26.03
2022-10-11T07:04:54.541Z,29.73
2022-10-11T07:07:21.217Z,26.33
2022-10-11T07:09:47.970Z,28.43
2022-10-11T07:12:16.123Z,34.40
2022-10-11T07:14:43.016Z,31.37
2022-10-11T07:17:09.754Z,27.20
2022-10-11T07:19:36.450Z,41.80
2022-10-11T07:22:03.170Z,27.40
2022-10-11T07:24:29.863Z,36.63
2022-10-11T07:26:57.975Z,26.70
2022-10-11T07:29:24.755Z,30.03
2022-10-11T07:31:52.722Z,32.13
2022-10-11T07:34:20.629Z,33.93
2022-10-11T07:36:49.484Z,27.70
2022-10-11T07:39:16.197Z,27.17
2022-10-11T07:41:45.912Z,26.33
2022-10-11T07:44:13.587Z,25.77
2022-10-11T07:46:40.333Z,29.23
2022-10-11T07:49:07.206Z,22.60
2022-10-11T07:51:35.108Z,30.13
2022-10-11T07:54:07.264Z,25.77
2022-10-11T07:56:34.673Z,24.57
2022-10-11T07:59:03.569Z,21.57
2022-10-11T08:01:32.940Z,17.63
2022-10-11T08:03:59.894Z,20.27
2022-10-11T08:06:32.261Z,18.50
2022-10-11T08:09:01.095Z,20.53
2022-10-11T08:11:30.513Z,18.20
2022-10-11T08:13:59.364Z,21.50
2022-10-11T08:16:26.320Z,23.53
2022-10-11T08:18:57.047Z,29.23
2022-10-11T08:21:28.727Z,31.73
2022-10-11T08:23:55.455Z,30.20
2022-10-11T08:26:23.355Z,27.17
2022-10-11T08:28:50.339Z,28.37
2022-10-11T08:31:20.474Z,26.83
2022-10-11T08:33:48.232Z,21.83
2022-10-11T08:36:14.993Z,21.67
2022-10-11T08:38:42.275Z,28.23
2022-10-11T08:41:31.086Z,23.30
2022-10-11T08:44:03.556Z,21.50
2022-10-11T08:46:35.118Z,26.50
2022-10-11T08:49:02.619Z,29.77
2022-10-11T08:51:47.045Z,31.97
2022-10-11T08:54:26.533Z,27.70
2022-10-11T08:56:53.325Z,27.60
2022-10-11T08:59:51.814Z,24.57
2022-10-11T09:03:03.075Z,31.00
2022-10-11T09:05:31.024Z,25.87
2022-10-11T09:08:03.678Z,27.07
2022-10-11T09:10:53.308Z,27.53
2022-10-11T09:13:53.974Z,29.73
2022-10-11T09:16:39.873Z,28.93
2022-10-11T09:19:31.894Z,25.67
2022-10-11T09:22:42.473Z,28.87
2022-10-11T09:25:32.468Z,27.23
2022-10-11T09:28:44.301Z,26.10
2022-10-11T09:31:11.868Z,26.13
2022-10-11T09:33:46.781Z,24.03
2022-10-11T09:36:21.658Z,30.83
2022-10-11T09:39:06.985Z,25.47
2022-10-11T09:41:42.842Z,23.77
2022-10-11T09:44:24.067Z,22.73
2022-10-11T09:46:51.716Z,23.00
2022-10-11T09:49:21.625Z,26.43
2022-10-11T09:51:57.396Z,21.50
2022-10-11T09:54:46.225Z,24.80
2022-10-11T09:57:22.560Z,23.30
2022-10-11T10:00:18.947Z,23.17
2022-10-11T10:02:57.475Z,15.53
2022-10-11T10:05:26.673Z,15.37
2022-10-11T10:08:11.618Z,17.47
2022-10-11T10:10:41.171Z,20.10
2022-10-11T10:13:23.215Z,17.23
2022-10-11T10:15:53.587Z,18.70
2022-10-11T10:18:34.312Z,15.27
2022-10-11T10:21:16.337Z,15.40
2022-10-11T10:23:43.958Z,20.93
2022-10-11T10:26:20.318Z,22.10
2022-10-11T10:29:16.580Z,19.37
2022-10-11T10:32:13.538Z,19.77
2022-10-11T10:35:07.593Z,17.50
2022-10-11T10:38:06.540Z,16.43
2022-10-11T10:40:47.842Z,15.90
2022-10-11T10:43:20.066Z,14.83
2022-10-11T10:46:19.620Z,14.57
2022-10-11T10:49:23.653Z,12.53
2022-10-11T10:52:05.833Z,13.23
2022-10-11T10:54:43.201Z,11.57
2022-10-11T10:57:30.446Z,15.30
2022-10-11T11:00:09.703Z,19.00
2022-10-11T11:02:41.450Z,15.37
2022-10-11T11:05:48.421Z,12.83
2022-10-11T11:08:49.223Z,11.20
2022-10-11T11:11:33.437Z,11.90
2022-10-11T11:14:38.080Z,14.37
2022-10-11T11:17:24.009Z,15.90
2022-10-11T11:20:09.550Z,13.13
2022-10-11T11:22:50.225Z,13.10
2022-10-11T11:25:45.068Z,11.70
2022-10-11T11:28:42.852Z,7.73
2022-10-11T11:31:32.315Z,11.67
2022-10-11T11:34:13.863Z,18.00
2022-10-11T11:37:04.315Z,13.00
2022-10-11T11:39:46.004Z,17.33
2022-10-11T11:42:34.123Z,9.73
2022-10-11T11:45:11.768Z,11.00
2022-10-11T11:47:42.354Z,10.67
2022-10-11T11:50:22.612Z,9.80
2022-10-11T11:53:07.931Z,14.23
2022-10-11T11:55:56.189Z,8.97
2022-10-11T11:58:38.852Z,13.93
2022-10-11T12:01:18.295Z,10.53
2022-10-11T12:03:50.933Z,15.47
2022-10-11T12:06:25.214Z,12.57
2022-10-11T12:09:05.213Z,18.50
2022-10-11T12:11:38.124Z,14.70
2022-10-11T12:14:33.700Z,12.00
2022-10-11T12:17:20.048Z,11.43
2022-10-11T12:20:21.074Z,13.90
2022-10-11T12:22:55.250Z,8.60
2022-10-11T12:25:21.995Z,11.77
2022-10-11T12:27:51.657Z,14.10
2022-10-11T12:30:53.246Z,10.70
2022-10-11T12:33:21.966Z,8.57
2022-10-11T12:35:55.301Z,8.07
2022-10-11T12:38:31.099Z,12.80
2022-10-11T12:41:16.914Z,12.30
2022-10-11T12:43:49.667Z,12.07
2022-10-11T12:46:29.335Z,13.57
2022-10-11T12:49:06.431Z,11.57
2022-10-11T12:51:42.785Z,14.67
2022-10-11T12:55:03.690Z,21.67
2022-10-11T12:57:56.303Z,13.33
2022-10-11T13:00:28.932Z,14.00
2022-10-11T13:03:04.777Z,10.57
2022-10-11T13:05:49.681Z,10.80
2022-10-11T13:08:36.212Z,11.77
2022-10-11T13:11:06.088Z,11.53
2022-10-11T13:13:39.433Z,11.73
2022-10-11T13:16:19.434Z,9.87
2022-10-11T13:18:49.317Z,11.33
2022-10-11T13:21:36.582Z,13.33
2022-10-11T13:24:10.631Z,10.23
2022-10-11T13:26:38.222Z,8.43
2022-10-11T13:29:44.574Z,13.23
2022-10-11T13:32:16.438Z,11.47
2022-10-11T13:34:46.805Z,8.83
2022-10-11T13:37:18.345Z,12.50
2022-10-11T13:39:46.348Z,12.70
2022-10-11T13:42:16.717Z,9.97
2022-10-11T13:44:45.703Z,5.93
2022-10-11T13:47:20.674Z,7.77
2022-10-11T13:50:00.545Z,6.93
2022-10-11T13:52:27.332Z,8.27
2022-10-11T13:55:04.540Z,13.80
2022-10-11T13:57:45.094Z,10.17
2022-10-11T14:00:14.828Z,13.03
2022-10-11T14:03:03.748Z,7.90
2022-10-11T14:05:38.531Z,7.50
2022-10-11T14:08:23.038Z,11.97
2022-10-11T14:10:55.802Z,7.97
2022-10-11T14:13:29.950Z,7.00
2022-10-11T14:16:02.180Z,10.03
2022-10-11T14:18:36.713Z,9.77
2022-10-11T14:21:30.881Z,14.03
2022-10-11T14:24:03.352Z,7.90
2022-10-11T14:26:34.361Z,9.80
2022-10-11T14:29:07.222Z,5.20
2022-10-11T14:31:41.485Z,8.73
2022-10-11T14:34:15.100Z,8.23
2022-10-11T14:36:41.907Z,11.30
2022-10-11T14:39:16.485Z,10.93
2022-10-11T14:41:47.450Z,8.63
2022-10-11T14:44:16.880Z,9.50
2022-10-11T14:46:45.709Z,8.30
2022-10-11T14:49:19.233Z,13.87
2022-10-11T14:51:48.119Z,10.70
2022-10-11T14:54:16.246Z,8.83
2022-10-11T14:56:43.126Z,11.33
2022-10-11T14:59:14.687Z,16.33
2022-10-11T15:01:42.754Z,9.27
2022-10-11T15:04:13.456Z,13.20
2022-10-11T15:06:50.429Z,11.97
2022-10-11T15:09:43.455Z,8.23
2022-10-11T15:12:10.245Z,7.77
2022-10-11T15:14:37.028Z,8.30
2022-10-11T15:17:04.899Z,6.57
2022-10-11T15:19:31.900Z,6.43
2022-10-11T15:21:58.800Z,10.50
2022-10-11T15:24:25.761Z,8.40
2022-10-11T15:26:56.090Z,11.07
2022-10-11T15:29:24.257Z,10.30
2022-10-11T15:31:52.118Z,7.67
2022-10-11T15:34:19.001Z,9.07
2022-10-11T15:36:45.959Z,10.97
2022-10-11T15:39:34.273Z,7.93
2022-10-11T15:42:01.559Z,9.90
2022-10-11T15:44:28.710Z,9.20
2022-10-11T15:46:55.873Z,10.73
2022-10-11T15:49:22.700Z,6.90
2022-10-11T15:51:51.463Z,8.13
2022-10-11T15:54:18.351Z,8.87
2022-10-11T15:56:45.111Z,7.77
2022-10-11T15:59:12.497Z,8.57
2022-10-11T16:01:46.973Z,6.87
2022-10-11T16:04:13.881Z,10.43
2022-10-11T16:06:41.362Z,8.20
2022-10-11T16:09:08.210Z,5.70
2022-10-11T16:11:35.026Z,6.33
2022-10-11T16:14:01.892Z,5.23
2022-10-11T16:16:29.818Z,7.93
2022-10-11T16:18:56.713Z,10.97
2022-10-11T16:21:24.179Z,9.43
2022-10-11T16:23:51.062Z,8.30
2022-10-11T16:26:18.865Z,8.70
2022-10-11T16:28:47.667Z,11.03
2022-10-11T16:31:18.197Z,11.20
2022-10-11T16:33:48.284Z,10.93
2022-10-11T16:36:32.882Z,10.40
2022-10-11T16:39:01.054Z,10.83
2022-10-11T16:41:28.967Z,11.27
2022-10-11T16:43:56.136Z,10.43
2022-10-11T16:46:23.367Z,9.00
2022-10-11T16:48:50.645Z,7.43
2022-10-11T16:51:17.522Z,12.20
2022-10-11T16:53:45.321Z,7.40
2022-10-11T16:56:14.140Z,7.30
2022-10-11T16:58:41.236Z,9.53
2022-10-11T17:01:10.424Z,8.93
2022-10-11T17:03:37.935Z,5.80
2022-10-11T17:06:06.370Z,11.47
2022-10-11T17:08:33.405Z,6.83
2022-10-11T17:11:02.476Z,8.07
2022-10-11T17:13:30.865Z,9.20
2022-10-11T17:15:57.917Z,6.63
2022-10-11T17:18:24.816Z,8.33
2022-10-11T17:21:01.753Z,7.53
2022-10-11T17:23:30.720Z,6.23
2022-10-11T17:25:57.791Z,4.83
2022-10-11T17:28:26.510Z,5.93
2022-10-11T17:30:54.944Z,6.33
2022-10-11T17:33:22.575Z,7.07
2022-10-11T17:35:49.621Z,5.33
2022-10-11T17:38:19.596Z,5.37
2022-10-11T17:40:47.332Z,5.70
2022-10-11T17:43:15.736Z,10.00
2022-10-11T17:45:42.518Z,7.57
2022-10-11T17:48:09.483Z,10.20
2022-10-11T17:50:40.756Z,8.80
2022-10-11T17:53:07.511Z,7.43
2022-10-11T17:55:41.687Z,8.87
2022-10-11T17:58:10.510Z,7.03
2022-10-11T18:00:38.603Z,8.07
2022-10-11T18:03:06.945Z,7.37
2022-10-11T18:05:33.788Z,8.33
2022-10-11T18:08:01.632Z,10.87
2022-10-11T18:10:28.539Z,11.93
2022-10-11T18:12:56.387Z,10.90
2022-10-11T18:15:23.236Z,10.77
2022-10-11T18:17:50.089Z,9.73
2022-10-11T18:20:18.042Z,8.07
2022-10-11T18:22:44.882Z,9.27
2022-10-11T18:25:11.914Z,9.13
2022-10-11T18:27:40.164Z,10.33
2022-10-11T18:30:07.737Z,9.60
2022-10-11T18:32:34.592Z,8.23
2022-10-11T18:35:01.552Z,7.63
2022-10-11T18:37:29.655Z,6.97
2022-10-11T18:39:56.641Z,7.90
2022-10-11T18:42:23.479Z,6.60
2022-10-11T18:44:50.331Z,7.27
2022-10-11T18:47:17.800Z,7.80
2022-10-11T18:49:44.589Z,8.73
2022-10-11T18:52:12.473Z,7.13
2022-10-11T18:54:39.389Z,6.20
2022-10-11T18:57:06.189Z,6.83
2022-10-11T18:59:33.214Z,7.07
2022-10-11T19:02:00.150Z,9.20
2022-10-11T19:04:28.510Z,9.23
2022-10-11T19:06:55.358Z,9.47
2022-10-11T19:09:24.872Z,8.43
2022-10-11T19:11:54.308Z,7.33
2022-10-11T19:14:25.930Z,9.13
2022-10-11T19:16:58.160Z,12.00
2022-10-11T19:19:28.580Z,8.07
2022-10-11T19:22:00.241Z,9.20
2022-10-11T19:24:30.705Z,9.20
2022-10-11T19:27:02.289Z,11.17
2022-10-11T19:29:30.574Z,10.93
2022-10-11T19:32:00.228Z,8.03
2022-10-11T19:34:28.663Z,13.83
2022-10-11T19:36:56.677Z,9.33
2022-10-11T19:39:24.540Z,9.83
2022-10-11T19:41:51.702Z,11.20
2022-10-11T19:44:18.879Z,11.77
2022-10-11T19:46:53.351Z,10.90
2022-10-11T19:49:25.879Z,13.23
2022-10-11T19:51:53.806Z,12.63
2022-10-11T19:54:23.387Z,9.37
2022-10-11T19:56:50.227Z,10.37
2022-10-11T19:59:17.607Z,11.67
2022-10-11T20:01:49.384Z,13.93
2022-10-11T20:04:47.130Z,16.63
2022-10-11T20:07:06.067Z,12.60
2022-10-11T20:09:33.023Z,11.70
2022-10-11T20:11:59.894Z,12.80
2022-10-11T20:14:26.869Z,13.47
2022-10-11T20:16:53.693Z,13.80
2022-10-11T20:19:45.486Z,9.70
2022-10-11T20:22:12.365Z,9.33
2022-10-11T20:24:39.271Z,13.27
2022-10-11T20:27:06.434Z,13.23
2022-10-11T20:29:34.352Z,9.67
2022-10-11T20:32:03.201Z,11.60
2022-10-11T20:34:32.099Z,10.37
2022-10-11T20:36:58.948Z,13.00
2022-10-11T20:39:26.010Z,12.20
2022-10-11T20:41:52.867Z,10.77
2022-10-11T20:44:20.716Z,10.60
2022-10-11T20:46:48.584Z,8.97
2022-10-11T20:49:15.531Z,8.00
2022-10-11T20:51:44.405Z,8.27
2022-10-11T20:54:11.433Z,6.83
2022-10-11T20:56:39.372Z,8.93
2022-10-11T20:59:06.879Z,10.00
2022-10-11T21:01:37.226Z,6.87
2022-10-11T21:04:05.467Z,8.27
2022-10-11T21:06:32.817Z,8.73
2022-10-11T21:09:00.617Z,9.67
2022-10-11T21:11:30.395Z,8.77
2022-10-11T21:13:59.313Z,6.40
2022-10-11T21:16:26.990Z,7.13
2022-10-11T21:18:55.576Z,6.10
2022-10-11T21:21:25.976Z,7.40
2022-10-11T21:23:58.105Z,6.40
2022-10-11T21:26:31.667Z,7.03
2022-10-11T21:29:04.157Z,9.77
2022-10-11T21:31:34.329Z,11.43
2022-10-11T21:34:05.184Z,6.47
2022-10-11T21:36:32.748Z,6.00
2022-10-11T21:39:00.948Z,8.23
2022-10-11T21:41:31.335Z,8.10
2022-10-11T21:43:59.252Z,7.10
2022-10-11T21:46:54.234Z,7.10
2022-10-11T21:49:17.520Z,8.17
2022-10-11T21:51:45.843Z,8.33
2022-10-11T21:54:15.841Z,12.63
2022-10-11T21:56:43.230Z,7.97
2022-10-11T21:59:12.729Z,7.53
2022-10-11T22:01:42.038Z,7.43
2022-10-11T22:04:10.432Z,8.33
2022-10-11T22:06:39.496Z,8.60
2022-10-11T22:09:08.495Z,6.63
2022-10-11T22:11:42.600Z,8.10
2022-10-11T22:14:10.003Z,12.47
2022-10-11T22:16:37.398Z,10.30
2022-10-11T22:19:04.640Z,10.27
2022-10-11T22:21:33.975Z,10.23
2022-10-11T22:24:01.144Z,8.20
2022-10-11T22:26:30.776Z,7.77
2022-10-11T22:29:00.265Z,10.27
2022-10-11T22:31:27.651Z,8.23
2022-10-11T22:33:56.412Z,10.43
2022-10-11T22:36:24.372Z,6.77
2022-10-11T22:38:51.857Z,9.13
2022-10-11T22:41:18.862Z,8.70
2022-10-11T22:43:46.037Z,6.97
2022-10-11T22:46:13.841Z,12.17
2022-10-11T22:48:40.696Z,9.70
2022-10-11T22:51:07.759Z,9.97
2022-10-11T22:53:34.706Z,9.27
2022-10-11T22:56:01.560Z,10.17
2022-10-11T22:58:28.361Z,14.07
2022-10-11T23:00:56.213Z,9.43
2022-10-11T23:03:23.194Z,9.70
2022-10-11T23:05:55.738Z,9.43
2022-10-11T23:08:25.038Z,9.37
2022-10-11T23:10:51.915Z,8.40
2022-10-11T23:13:18.935Z,7.23
2022-10-11T23:15:45.891Z,7.30
2022-10-11T23:18:15.763Z,6.80
2022-10-11T23:20:42.833Z,8.33
2022-10-11T23:23:09.787Z,6.80
2022-10-11T23:25:36.616Z,7.73
2022-10-11T23:28:03.482Z,6.33
2022-10-11T23:30:31.455Z,6.47
2022-10-11T23:32:58.233Z,6.53
2022-10-11T23:35:25.247Z,8.20
2022-10-11T23:37:54.221Z,8.20
2022-10-11T23:40:21.079Z,10.83
2022-10-11T23:42:47.898Z,13.77
2022-10-11T23:45:14.788Z,10.90
2022-10-11T23:47:41.597Z,9.37
2022-10-11T23:50:09.048Z,10.57
2022-10-11T23:52:36.044Z,10.30
2022-10-11T23:55:03.426Z,10.53
2022-10-11T23:57:30.506Z,8.53
2022-10-11T23:59:57.794Z,7.53
